createdAt,value
2022-08-21T00:03:38.189Z,6.33
2022-08-21T00:08:41.235Z,9.57
2022-08-21T00:13:43.079Z,8.43
2022-08-21T00:18:44.828Z,8.23
2022-08-21T00:23:46.767Z,7.60
2022-08-21T00:28:49.910Z,6.63
2022-08-21T00:33:51.641Z,9.53
2022-08-21T00:38:53.368Z,6.60
2022-08-21T00:43:55.607Z,6.90
2022-08-21T00:48:59.031Z,6.93
2022-08-21T00:54:02.579Z,7.00
2022-08-21T00:59:05.335Z,5.77
2022-08-21T01:04:07.067Z,7.63
2022-08-21T01:09:09.837Z,7.37
2022-08-21T01:14:13.489Z,6.47
2022-08-21T01:19:15.877Z,6.53
2022-08-21T01:24:18.022Z,6.17
2022-08-21T01:29:57.773Z,6.60
2022-08-21T01:34:59.475Z,5.90
2022-08-21T01:40:01.477Z,6.50
2022-08-21T01:45:04.398Z,6.07
2022-08-21T01:50:08.853Z,6.27
2022-08-21T01:55:11.731Z,6.87
2022-08-21T02:00:15.491Z,7.13
2022-08-21T02:05:17.270Z,7.63
2022-08-21T02:10:31.412Z,6.93
2022-08-21T02:15:33.139Z,6.37
2022-08-21T02:20:40.674Z,7.03
2022-08-21T02:25:42.704Z,7.57
2022-08-21T02:30:48.806Z,7.23
2022-08-21T02:35:51.414Z,6.77
2022-08-21T02:40:53.986Z,7.53
2022-08-21T02:45:57.549Z,7.50
2022-08-21T02:51:01.987Z,8.33
2022-08-21T02:56:08.517Z,7.60
2022-08-21T03:01:19.746Z,7.77
2022-08-21T03:06:23.307Z,7.93
2022-08-21T03:11:25.136Z,8.20
2022-08-21T03:16:33.097Z,8.63
2022-08-21T03:21:37.806Z,8.63
2022-08-21T03:26:40.602Z,7.67
2022-08-21T03:31:43.348Z,8.40
2022-08-21T03:36:45.146Z,7.20
2022-08-21T03:41:48.158Z,8.03
2022-08-21T03:46:57.225Z,8.00
2022-08-21T03:51:59.936Z,7.37
2022-08-21T03:57:01.973Z,7.43
2022-08-21T04:02:05.837Z,7.40
2022-08-21T04:07:07.585Z,8.20
2022-08-21T04:12:09.436Z,7.10
2022-08-21T04:17:11.197Z,8.03
2022-08-21T04:22:12.900Z,9.23
2022-08-21T04:27:14.629Z,9.47
2022-08-21T04:32:25.631Z,8.13
2022-08-21T04:37:27.710Z,9.13
2022-08-21T04:42:29.868Z,8.73
2022-08-21T04:47:41.860Z,9.00
2022-08-21T04:52:53.838Z,8.53
2022-08-21T04:57:56.934Z,8.63
2022-08-21T05:03:00.664Z,8.07
2022-08-21T05:08:04.139Z,8.97
2022-08-21T05:13:09.454Z,9.13
2022-08-21T05:18:11.270Z,8.33
2022-08-21T05:23:14.578Z,8.57
2022-08-21T05:28:16.310Z,7.97
2022-08-21T05:33:18.035Z,8.73
2022-08-21T05:38:20.248Z,8.67
2022-08-21T05:43:22.273Z,8.00
2022-08-21T05:48:25.137Z,9.00
2022-08-21T05:53:27.230Z,8.73
2022-08-21T05:58:31.068Z,8.73
2022-08-21T06:03:36.256Z,9.80
2022-08-21T06:09:02.666Z,8.67
2022-08-21T06:14:50.649Z,9.77
2022-08-21T06:20:28.012Z,10.03
2022-08-21T06:26:44.095Z,9.40
2022-08-21T06:32:05.693Z,9.67
2022-08-21T06:42:53.733Z,10.90
2022-08-21T06:48:25.824Z,10.53
2022-08-21T06:58:59.335Z,10.27
2022-08-21T07:09:25.020Z,10.23
2022-08-21T07:14:26.904Z,10.20
2022-08-21T07:19:28.912Z,9.77
2022-08-21T07:24:31.015Z,10.93
2022-08-21T07:29:32.758Z,11.23
2022-08-21T07:34:44.289Z,10.07
2022-08-21T07:40:10.674Z,8.33
2022-08-21T07:45:13.133Z,9.33
2022-08-21T07:50:16.090Z,7.17
2022-08-21T07:55:20.570Z,6.60
2022-08-21T08:00:28.699Z,5.27
2022-08-21T08:05:33.344Z,4.20
2022-08-21T08:10:36.096Z,3.33
2022-08-21T08:15:40.357Z,3.40
2022-08-21T08:20:47.469Z,5.50
2022-08-21T08:25:52.765Z,5.97
2022-08-21T08:30:54.628Z,6.50
2022-08-21T08:35:56.896Z,5.53
2022-08-21T08:41:13.869Z,5.63
2022-08-21T08:46:17.997Z,5.87
2022-08-21T08:51:27.237Z,5.73
2022-08-21T08:56:32.281Z,5.37
2022-08-21T09:01:38.266Z,4.57
2022-08-21T09:07:32.740Z,4.20
2022-08-21T09:12:37.196Z,3.93
2022-08-21T09:17:53.635Z,3.93
2022-08-21T09:23:20.544Z,3.73
2022-08-21T09:28:22.360Z,3.30
2022-08-21T09:33:24.107Z,5.00
2022-08-21T09:38:35.634Z,3.80
2022-08-21T09:43:38.966Z,3.97
2022-08-21T09:48:46.518Z,3.37
2022-08-21T09:54:07.229Z,3.90
2022-08-21T09:59:20.978Z,3.03
2022-08-21T10:04:31.796Z,3.87
2022-08-21T10:09:33.615Z,3.30
2022-08-21T10:15:08.749Z,5.03
2022-08-21T10:20:24.954Z,3.53
2022-08-21T10:25:39.435Z,3.77
2022-08-21T10:31:08.386Z,3.03
2022-08-21T10:36:32.082Z,3.93
2022-08-21T10:41:54.542Z,3.37
2022-08-21T10:47:36.377Z,2.90
2022-08-21T10:52:50.086Z,6.90
2022-08-21T10:58:00.505Z,4.63
2022-08-21T11:03:31.323Z,3.20
2022-08-21T11:08:55.560Z,3.57
2022-08-21T11:14:09.585Z,3.60
2022-08-21T11:19:23.182Z,3.27
2022-08-21T11:24:42.967Z,6.33
2022-08-21T11:29:52.700Z,3.77
2022-08-21T11:35:15.959Z,2.90
2022-08-21T11:40:17.689Z,1.95
2022-08-21T11:45:22.309Z,2.80
2022-08-21T11:50:35.184Z,2.43
2022-08-21T11:56:05.133Z,4.63
2022-08-21T12:01:10.688Z,2.20
2022-08-21T12:06:14.688Z,3.33
2022-08-21T12:11:30.708Z,2.08
2022-08-21T12:16:44.562Z,2.05
2022-08-21T12:21:54.744Z,1.73
2022-08-21T12:26:59.250Z,2.20
2022-08-21T12:32:04.240Z,2.33
2022-08-21T12:37:32.438Z,2.42
2022-08-21T12:42:44.326Z,1.77
2022-08-21T12:47:57.983Z,2.00
2022-08-21T12:53:06.713Z,2.08
2022-08-21T12:58:24.997Z,3.90
2022-08-21T13:03:27.038Z,2.25
2022-08-21T13:08:29.182Z,4.00
2022-08-21T13:13:31.464Z,2.33
2022-08-21T13:18:36.096Z,1.90
2022-08-21T13:23:37.910Z,2.15
2022-08-21T13:28:39.672Z,1.75
2022-08-21T13:33:42.467Z,2.08
2022-08-21T13:38:45.588Z,2.35
2022-08-21T13:44:19.912Z,1.95
2022-08-21T13:49:28.861Z,1.57
2022-08-21T13:54:36.987Z,3.78
2022-08-21T13:59:38.761Z,2.47
2022-08-21T14:04:55.256Z,1.27
2022-08-21T14:09:57.096Z,1.65
2022-08-21T14:14:59.405Z,1.55
2022-08-21T14:20:01.193Z,1.70
2022-08-21T14:25:08.391Z,1.60
2022-08-21T14:30:33.328Z,1.80
2022-08-21T14:35:35.047Z,1.20
2022-08-21T14:40:36.780Z,1.50
2022-08-21T14:45:41.456Z,1.88
2022-08-21T14:51:00.505Z,1.63
2022-08-21T14:56:05.694Z,2.60
2022-08-21T15:01:08.860Z,8.33
2022-08-21T15:06:11.416Z,1.60
2022-08-21T15:11:42.464Z,1.67
2022-08-21T15:16:43.784Z,1.63
2022-08-21T15:21:45.714Z,1.83
2022-08-21T15:26:47.839Z,1.50
2022-08-21T15:31:57.582Z,1.33
2022-08-21T15:36:59.731Z,1.23
2022-08-21T15:42:06.174Z,1.80
2022-08-21T15:47:20.599Z,1.57
2022-08-21T15:52:23.341Z,1.40
2022-08-21T15:57:27.062Z,2.03
2022-08-21T16:02:31.723Z,1.60
2022-08-21T16:07:52.158Z,1.20
2022-08-21T16:13:06.201Z,1.23
2022-08-21T16:18:08.843Z,1.50
2022-08-21T16:23:10.597Z,2.13
2022-08-21T16:28:14.886Z,1.50
2022-08-21T16:33:47.760Z,1.30
2022-08-21T16:38:49.648Z,1.47
2022-08-21T16:43:52.330Z,2.07
2022-08-21T16:48:54.594Z,2.00
2022-08-21T16:53:56.316Z,1.50
2022-08-21T16:58:58.582Z,1.73
2022-08-21T17:04:00.772Z,1.53
2022-08-21T17:09:02.520Z,1.40
2022-08-21T17:14:13.204Z,1.53
2022-08-21T17:19:15.562Z,2.03
2022-08-21T17:24:17.524Z,1.93
2022-08-21T17:29:20.909Z,1.80
2022-08-21T17:34:24.044Z,1.67
2022-08-21T17:39:32.829Z,1.43
2022-08-21T17:44:37.227Z,1.60
2022-08-21T17:49:39.105Z,2.10
2022-08-21T17:54:41.243Z,4.53
2022-08-21T17:59:43.060Z,2.77
2022-08-21T18:04:44.803Z,2.27
2022-08-21T18:09:47.201Z,1.40
2022-08-21T18:14:49.942Z,1.60
2022-08-21T18:19:51.955Z,2.00
2022-08-21T18:24:53.735Z,2.00
2022-08-21T18:29:57.415Z,1.70
2022-08-21T18:35:00.775Z,1.60
2022-08-21T18:40:03.442Z,9.37
2022-08-21T18:45:09.022Z,2.77
2022-08-21T18:50:12.612Z,2.13
2022-08-21T18:55:17.149Z,1.90
2022-08-21T19:00:26.635Z,1.70
2022-08-21T19:05:28.427Z,2.00
2022-08-21T19:10:30.516Z,1.43
2022-08-21T19:15:32.356Z,1.93
2022-08-21T19:20:36.841Z,2.80
2022-08-21T19:31:19.681Z,2.00
2022-08-21T19:36:25.595Z,2.20
2022-08-21T19:41:31.515Z,1.73
2022-08-21T19:46:35.566Z,3.20
2022-08-21T19:51:37.351Z,3.47
2022-08-21T19:56:40.002Z,2.27
2022-08-21T20:01:43.348Z,1.97
2022-08-21T20:06:45.794Z,2.20
2022-08-21T20:11:53.634Z,2.83
2022-08-21T20:17:08.127Z,2.33
2022-08-21T20:22:12.666Z,2.80
2022-08-21T20:27:19.871Z,2.03
2022-08-21T20:32:22.264Z,2.10
2022-08-21T20:37:36.222Z,1.93
2022-08-21T20:42:47.204Z,2.03
2022-08-21T20:47:52.521Z,1.30
2022-08-21T20:53:43.201Z,3.80
2022-08-21T20:58:55.419Z,2.00
2022-08-21T21:04:19.475Z,1.70
2022-08-21T21:15:00.684Z,1.87
2022-08-21T21:20:16.258Z,1.53
2022-08-21T21:25:40.533Z,1.97
2022-08-21T21:30:46.602Z,1.67
2022-08-21T21:35:59.599Z,1.90
2022-08-21T21:41:35.101Z,1.90
2022-08-21T21:46:46.119Z,2.23
2022-08-21T21:52:23.442Z,3.47
2022-08-21T21:58:24.173Z,2.10
2022-08-21T22:03:31.163Z,2.17
2022-08-21T22:08:48.920Z,2.13
2022-08-21T22:14:09.809Z,2.33
2022-08-21T22:19:24.001Z,1.93
2022-08-21T22:24:29.261Z,2.27
2022-08-21T22:29:54.671Z,2.63
2022-08-21T22:35:03.264Z,2.00
2022-08-21T22:40:07.959Z,2.83
2022-08-21T22:45:26.630Z,2.60
2022-08-21T22:50:31.022Z,2.60
2022-08-21T22:55:44.023Z,3.13
2022-08-21T23:00:54.322Z,2.00
2022-08-21T23:05:56.107Z,2.73
2022-08-21T23:11:14.013Z,2.60
2022-08-21T23:16:24.426Z,3.27
2022-08-21T23:22:01.052Z,3.10
2022-08-21T23:27:19.682Z,3.70
2022-08-21T23:32:35.585Z,2.47
2022-08-21T23:38:14.014Z,2.53
2022-08-21T23:43:56.963Z,2.67
2022-08-21T23:49:05.980Z,2.53
2022-08-21T23:54:18.722Z,3.43
2022-08-21T23:59:40.234Z,2.93
